createdAt,value
2022-11-19T00:00:15.953Z,1007.41
2022-11-19T00:01:15.942Z,1007.42
2022-11-19T00:02:16.002Z,1007.39
2022-11-19T00:03:15.917Z,1007.40
2022-11-19T00:04:15.921Z,1007.39
2022-11-19T00:05:15.912Z,1007.31
2022-11-19T00:06:15.888Z,1007.32
2022-11-19T00:07:15.941Z,1007.33
2022-11-19T00:08:15.869Z,1007.29
2022-11-19T00:09:15.994Z,1007.36
2022-11-19T00:10:15.840Z,1007.34
2022-11-19T00:11:15.835Z,1007.33
2022-11-19T00:12:15.829Z,1007.32
2022-11-19T00:13:15.806Z,1007.33
2022-11-19T00:14:15.812Z,1007.31
2022-11-19T00:15:15.787Z,1007.31
2022-11-19T00:16:15.785Z,1007.31
2022-11-19T00:17:15.765Z,1007.32
2022-11-19T00:18:15.775Z,1007.36
2022-11-19T00:19:15.756Z,1007.35
2022-11-19T00:20:15.744Z,1007.38
2022-11-19T00:21:15.726Z,1007.38
2022-11-19T00:22:15.719Z,1007.38
2022-11-19T00:23:15.710Z,1007.41
2022-11-19T00:24:15.689Z,1007.40
2022-11-19T00:25:15.679Z,1007.42
2022-11-19T00:26:15.675Z,1007.47
2022-11-19T00:27:15.666Z,1007.44
2022-11-19T00:28:15.674Z,1007.45
2022-11-19T00:29:18.119Z,1007.47
2022-11-19T00:30:40.815Z,1007.46
2022-11-19T00:31:15.621Z,1007.46
2022-11-19T00:32:15.608Z,1007.45
2022-11-19T00:33:15.600Z,1007.44
2022-11-19T00:34:15.582Z,1007.42
2022-11-19T00:35:15.575Z,1007.43
2022-11-19T00:36:15.564Z,1007.50
2022-11-19T00:37:15.546Z,1007.52
2022-11-19T00:38:15.567Z,1007.47
2022-11-19T00:39:15.527Z,1007.51
2022-11-19T00:40:15.520Z,1007.55
2022-11-19T00:41:15.504Z,1007.54
2022-11-19T00:42:15.499Z,1007.56
2022-11-19T00:43:15.482Z,1007.57
2022-11-19T00:44:15.490Z,1007.57
2022-11-19T00:45:15.460Z,1007.58
2022-11-19T00:46:15.454Z,1007.64
2022-11-19T00:47:15.440Z,1007.64
2022-11-19T00:48:15.435Z,1007.61
2022-11-19T00:49:15.433Z,1007.63
2022-11-19T00:50:15.411Z,1007.59
2022-11-19T00:51:15.387Z,1007.63
2022-11-19T00:52:15.391Z,1007.62
2022-11-19T00:53:15.371Z,1007.67
2022-11-19T00:54:15.385Z,1007.61
2022-11-19T00:55:15.351Z,1007.59
2022-11-19T00:56:15.340Z,1007.59
2022-11-19T00:57:15.334Z,1007.60
2022-11-19T00:58:15.330Z,1007.55
2022-11-19T00:59:15.313Z,1007.59
2022-11-19T01:00:15.301Z,1007.63
2022-11-19T01:01:15.394Z,1007.65
2022-11-19T01:02:15.277Z,1007.69
2022-11-19T01:03:15.267Z,1007.69
2022-11-19T01:04:15.268Z,1007.70
2022-11-19T01:05:15.239Z,1007.74
2022-11-19T01:06:18.834Z,1007.77
2022-11-19T01:07:15.280Z,1007.75
2022-11-19T01:08:15.213Z,1007.78
2022-11-19T01:09:15.213Z,1007.73
2022-11-19T01:10:15.199Z,1007.76
2022-11-19T01:11:15.173Z,1007.73
2022-11-19T01:12:15.174Z,1007.73
2022-11-19T01:13:15.168Z,1007.73
2022-11-19T01:14:15.164Z,1007.74
2022-11-19T01:15:15.139Z,1007.75
2022-11-19T01:16:15.134Z,1007.74
2022-11-19T01:17:15.114Z,1007.74
2022-11-19T01:18:15.106Z,1007.74
2022-11-19T01:19:15.096Z,1007.76
2022-11-19T01:20:15.153Z,1007.75
2022-11-19T01:21:15.072Z,1007.69
2022-11-19T01:22:15.063Z,1007.74
2022-11-19T01:23:15.051Z,1007.73
2022-11-19T01:24:15.052Z,1007.69
2022-11-19T01:25:15.042Z,1007.70
2022-11-19T01:26:15.021Z,1007.71
2022-11-19T01:27:15.016Z,1007.69
2022-11-19T01:28:15.011Z,1007.70
2022-11-19T01:29:14.981Z,1007.73
2022-11-19T01:30:14.988Z,1007.72
2022-11-19T01:31:14.972Z,1007.72
2022-11-19T01:32:14.958Z,1007.77
2022-11-19T01:33:14.945Z,1007.72
2022-11-19T01:34:14.958Z,1007.76
2022-11-19T01:35:14.928Z,1007.73
2022-11-19T01:36:14.919Z,1007.72
2022-11-19T01:37:14.905Z,1007.72
2022-11-19T01:38:14.901Z,1007.72
2022-11-19T01:39:14.887Z,1007.73
2022-11-19T01:40:14.899Z,1007.73
2022-11-19T01:41:14.855Z,1007.71
2022-11-19T01:42:14.857Z,1007.75
2022-11-19T01:43:14.844Z,1007.73
2022-11-19T01:44:14.830Z,1007.74
2022-11-19T01:45:14.819Z,1007.71
2022-11-19T01:46:14.816Z,1007.71
2022-11-19T01:47:14.803Z,1007.74
2022-11-19T01:48:14.788Z,1007.77
2022-11-19T01:49:14.777Z,1007.74
2022-11-19T01:50:14.780Z,1007.75
2022-11-19T01:51:14.759Z,1007.75
2022-11-19T01:52:14.755Z,1007.74
2022-11-19T01:53:14.728Z,1007.79
2022-11-19T01:54:14.723Z,1007.75
2022-11-19T01:55:14.726Z,1007.74
2022-11-19T01:56:14.703Z,1007.71
2022-11-19T01:57:14.691Z,1007.73
2022-11-19T01:58:14.681Z,1007.72
2022-11-19T01:59:14.678Z,1007.75
2022-11-19T02:00:14.676Z,1007.76
2022-11-19T02:01:14.679Z,1007.81
2022-11-19T02:02:14.637Z,1007.78
2022-11-19T02:03:14.622Z,1007.86
2022-11-19T02:04:14.616Z,1007.91
2022-11-19T02:05:14.608Z,1007.90
2022-11-19T02:06:14.618Z,1007.91
2022-11-19T02:07:14.626Z,1007.94
2022-11-19T02:08:14.568Z,1007.93
2022-11-19T02:09:14.563Z,1007.98
2022-11-19T02:10:14.557Z,1007.95
2022-11-19T02:11:14.544Z,1007.97
2022-11-19T02:12:14.548Z,1007.96
2022-11-19T02:13:14.527Z,1007.97
2022-11-19T02:14:14.512Z,1007.97
2022-11-19T02:15:14.500Z,1007.97
2022-11-19T02:16:14.518Z,1007.99
2022-11-19T02:17:14.485Z,1007.98
2022-11-19T02:18:14.474Z,1007.98
2022-11-19T02:19:14.457Z,1008.00
2022-11-19T02:20:14.439Z,1008.01
2022-11-19T02:21:14.436Z,1008.03
2022-11-19T02:22:14.440Z,1008.01
2022-11-19T02:23:14.407Z,1008.01
2022-11-19T02:24:14.405Z,1008.01
2022-11-19T02:25:14.384Z,1008.01
2022-11-19T02:26:14.372Z,1008.02
2022-11-19T02:27:14.397Z,1008.02
2022-11-19T02:28:14.358Z,1008.03
2022-11-19T02:29:14.350Z,1008.03
2022-11-19T02:30:14.353Z,1008.05
2022-11-19T02:31:14.320Z,1008.03
2022-11-19T02:32:14.312Z,1008.04
2022-11-19T02:33:14.319Z,1008.01
2022-11-19T02:34:14.311Z,1008.01
2022-11-19T02:35:14.281Z,1008.01
2022-11-19T02:36:14.290Z,1007.96
2022-11-19T02:37:14.254Z,1007.98
2022-11-19T02:38:14.261Z,1007.95
2022-11-19T02:39:14.239Z,1007.92
2022-11-19T02:40:14.225Z,1007.90
2022-11-19T02:41:14.220Z,1007.90
2022-11-19T02:42:14.201Z,1007.89
2022-11-19T02:43:14.206Z,1007.87
2022-11-19T02:44:14.188Z,1007.87
2022-11-19T02:45:14.165Z,1007.83
2022-11-19T02:46:14.155Z,1007.81
2022-11-19T02:47:14.148Z,1007.83
2022-11-19T02:48:14.139Z,1007.87
2022-11-19T02:49:14.138Z,1007.84
2022-11-19T02:50:14.121Z,1007.87
2022-11-19T02:51:14.100Z,1007.82
2022-11-19T02:52:14.092Z,1007.83
2022-11-19T02:53:14.075Z,1007.83
2022-11-19T02:54:14.091Z,1007.82
2022-11-19T02:55:14.070Z,1007.88
2022-11-19T02:56:14.068Z,1007.88
2022-11-19T02:57:14.058Z,1007.88
2022-11-19T02:58:14.030Z,1007.86
2022-11-19T02:59:14.024Z,1007.80
2022-11-19T03:00:14.006Z,1007.80
2022-11-19T03:01:14.014Z,1007.82
2022-11-19T03:02:13.995Z,1007.84
2022-11-19T03:03:13.994Z,1007.84
2022-11-19T03:04:13.977Z,1007.81
2022-11-19T03:05:13.960Z,1007.83
2022-11-19T03:06:13.939Z,1007.84
2022-11-19T03:07:13.969Z,1007.81
2022-11-19T03:08:13.936Z,1007.84
2022-11-19T03:09:13.906Z,1007.84
2022-11-19T03:10:13.919Z,1007.81
2022-11-19T03:11:13.882Z,1007.86
2022-11-19T03:12:13.898Z,1007.89
2022-11-19T03:13:13.911Z,1007.86
2022-11-19T03:14:13.863Z,1007.88
2022-11-19T03:15:13.848Z,1007.90
2022-11-19T03:16:13.842Z,1007.88
2022-11-19T03:17:13.821Z,1007.88
2022-11-19T03:18:13.806Z,1007.93
2022-11-19T03:19:13.803Z,1007.92
2022-11-19T03:20:13.806Z,1007.94
2022-11-19T03:21:13.789Z,1007.94
2022-11-19T03:22:13.773Z,1007.96
2022-11-19T03:23:13.747Z,1007.94
2022-11-19T03:24:13.744Z,1007.96
2022-11-19T03:25:13.752Z,1007.96
2022-11-19T03:26:13.734Z,1007.94
2022-11-19T03:27:13.730Z,1007.97
2022-11-19T03:28:13.703Z,1007.97
2022-11-19T03:29:13.695Z,1007.95
2022-11-19T03:30:13.773Z,1007.97
2022-11-19T03:31:13.672Z,1007.93
2022-11-19T03:32:13.660Z,1007.89
2022-11-19T03:33:13.644Z,1007.89
2022-11-19T03:34:13.636Z,1007.90
2022-11-19T03:35:13.629Z,1007.88
2022-11-19T03:36:13.614Z,1007.89
2022-11-19T03:37:13.621Z,1007.90
2022-11-19T03:38:13.586Z,1007.91
2022-11-19T03:39:13.672Z,1007.89
2022-11-19T03:40:13.579Z,1007.93
2022-11-19T03:41:13.566Z,1007.93
2022-11-19T03:42:13.581Z,1007.96
2022-11-19T03:43:13.545Z,1008.01
2022-11-19T03:44:13.530Z,1008.03
2022-11-19T03:45:13.525Z,1008.05
2022-11-19T03:46:13.512Z,1008.11
2022-11-19T03:47:13.496Z,1008.12
2022-11-19T03:48:13.607Z,1008.12
2022-11-19T03:49:13.472Z,1008.12
2022-11-19T03:50:13.472Z,1008.10
2022-11-19T03:51:13.450Z,1008.10
2022-11-19T03:52:13.449Z,1008.12
2022-11-19T03:53:13.448Z,1008.14
2022-11-19T03:54:13.423Z,1008.13
2022-11-19T03:55:13.414Z,1008.15
2022-11-19T03:56:13.400Z,1008.14
2022-11-19T03:57:13.391Z,1008.15
2022-11-19T03:58:13.391Z,1008.16
2022-11-19T03:59:13.382Z,1008.11
2022-11-19T04:00:13.367Z,1008.13
2022-11-19T04:01:13.350Z,1008.13
2022-11-19T04:02:13.383Z,1008.14
2022-11-19T04:03:13.344Z,1008.10
2022-11-19T04:04:13.315Z,1008.11
2022-11-19T04:05:13.305Z,1008.12
2022-11-19T04:06:13.291Z,1008.16
2022-11-19T04:07:13.371Z,1008.13
2022-11-19T04:08:13.454Z,1008.14
2022-11-19T04:09:13.265Z,1008.15
2022-11-19T04:10:13.251Z,1008.14
2022-11-19T04:12:21.978Z,1008.21
2022-11-19T04:13:21.714Z,1008.18
2022-11-19T04:14:21.691Z,1008.18
2022-11-19T04:15:21.682Z,1008.20
2022-11-19T04:16:21.675Z,1008.17
2022-11-19T04:17:21.651Z,1008.17
2022-11-19T04:18:21.656Z,1008.22
2022-11-19T04:19:21.967Z,1008.18
2022-11-19T04:20:21.625Z,1008.17
2022-11-19T04:21:21.621Z,1008.18
2022-11-19T04:22:21.614Z,1008.15
2022-11-19T04:23:21.599Z,1008.15
2022-11-19T04:24:21.586Z,1008.14
2022-11-19T04:25:21.567Z,1008.14
2022-11-19T04:26:21.570Z,1008.10
2022-11-19T04:27:21.552Z,1008.12
2022-11-19T04:28:21.570Z,1008.09
2022-11-19T04:29:21.840Z,1008.09
2022-11-19T04:30:21.523Z,1008.10
2022-11-19T04:31:21.505Z,1008.12
2022-11-19T04:32:21.504Z,1008.10
2022-11-19T04:33:21.486Z,1008.15
2022-11-19T04:34:21.497Z,1008.11
2022-11-19T04:35:21.471Z,1008.10
2022-11-19T04:36:21.468Z,1008.13
2022-11-19T04:37:21.450Z,1008.11
2022-11-19T04:38:21.441Z,1008.15
2022-11-19T04:39:21.830Z,1008.14
2022-11-19T04:40:21.423Z,1008.16
2022-11-19T04:41:21.403Z,1008.15
2022-11-19T04:42:21.435Z,1008.19
2022-11-19T04:43:21.385Z,1008.19
2022-11-19T04:44:21.379Z,1008.20
2022-11-19T04:45:21.354Z,1008.19
2022-11-19T04:46:21.371Z,1008.22
2022-11-19T04:47:21.344Z,1008.18
2022-11-19T04:48:21.336Z,1008.19
2022-11-19T04:49:21.666Z,1008.18
2022-11-19T04:50:21.317Z,1008.18
2022-11-19T04:51:21.299Z,1008.19
2022-11-19T04:52:21.295Z,1008.20
2022-11-19T04:53:21.280Z,1008.13
2022-11-19T04:54:21.289Z,1008.14
2022-11-19T04:55:21.259Z,1008.11
2022-11-19T04:56:21.257Z,1008.10
2022-11-19T04:57:21.237Z,1008.07
2022-11-19T04:58:21.245Z,1008.08
2022-11-19T04:59:21.555Z,1008.05
2022-11-19T05:00:21.235Z,1008.01
2022-11-19T05:01:21.245Z,1008.03
2022-11-19T05:02:21.187Z,1007.96
2022-11-19T05:03:21.173Z,1007.96
2022-11-19T05:04:21.175Z,1007.94
2022-11-19T05:05:21.157Z,1007.96
2022-11-19T05:06:21.150Z,1007.97
2022-11-19T05:07:21.200Z,1007.91
2022-11-19T05:08:21.125Z,1007.91
2022-11-19T05:09:21.546Z,1007.90
2022-11-19T05:10:21.115Z,1007.90
2022-11-19T05:11:21.088Z,1007.87
2022-11-19T05:12:21.100Z,1007.95
2022-11-19T05:13:21.064Z,1007.91
2022-11-19T05:14:22.792Z,1007.90
2022-11-19T05:15:21.055Z,1007.88
2022-11-19T05:16:21.040Z,1007.89
2022-11-19T05:17:21.033Z,1007.86
2022-11-19T05:18:21.013Z,1007.86
2022-11-19T05:19:21.440Z,1007.85
2022-11-19T05:20:20.995Z,1007.87
2022-11-19T05:21:20.987Z,1007.82
2022-11-19T05:22:20.986Z,1007.84
2022-11-19T05:23:20.967Z,1007.85
2022-11-19T05:24:20.980Z,1007.82
2022-11-19T05:25:20.950Z,1007.84
2022-11-19T05:26:20.941Z,1007.83
2022-11-19T05:27:20.928Z,1007.82
2022-11-19T05:28:32.732Z,1007.83
2022-11-19T05:29:21.202Z,1007.84
2022-11-19T05:30:20.897Z,1007.83
2022-11-19T05:31:20.875Z,1007.84
2022-11-19T05:32:20.871Z,1007.87
2022-11-19T05:33:20.851Z,1007.84
2022-11-19T05:34:20.857Z,1007.87
2022-11-19T05:35:20.843Z,1007.86
2022-11-19T05:36:20.828Z,1007.89
2022-11-19T05:37:20.820Z,1007.86
2022-11-19T05:38:20.823Z,1007.84
2022-11-19T05:39:22.400Z,1007.86
2022-11-19T05:40:20.816Z,1007.82
2022-11-19T05:41:20.781Z,1007.88
2022-11-19T05:42:20.767Z,1007.81
2022-11-19T05:43:20.765Z,1007.82
2022-11-19T05:44:20.748Z,1007.82
2022-11-19T05:45:20.737Z,1007.81
2022-11-19T05:46:20.720Z,1007.83
2022-11-19T05:47:20.716Z,1007.85
2022-11-19T05:48:20.700Z,1007.79
2022-11-19T05:49:20.953Z,1007.78
2022-11-19T05:50:20.696Z,1007.79
2022-11-19T05:51:20.674Z,1007.79
2022-11-19T05:52:20.662Z,1007.77
2022-11-19T05:53:20.643Z,1007.84
2022-11-19T05:54:20.654Z,1007.84
2022-11-19T05:55:20.638Z,1007.90
2022-11-19T05:56:20.620Z,1007.87
2022-11-19T05:57:20.605Z,1007.92
2022-11-19T05:58:20.604Z,1007.94
2022-11-19T05:59:21.008Z,1007.90
2022-11-19T06:00:20.597Z,1007.95
2022-11-19T06:01:20.581Z,1007.98
2022-11-19T06:02:20.559Z,1007.99
2022-11-19T06:03:20.542Z,1007.98
2022-11-19T06:04:20.533Z,1007.97
2022-11-19T06:05:20.532Z,1008.00
2022-11-19T06:06:20.510Z,1007.96
2022-11-19T06:07:20.526Z,1007.96
2022-11-19T06:08:20.497Z,1008.01
2022-11-19T06:09:20.775Z,1008.01
2022-11-19T06:10:20.482Z,1008.02
2022-11-19T06:11:20.461Z,1008.02
2022-11-19T06:12:20.453Z,1008.04
2022-11-19T06:13:20.450Z,1008.01
2022-11-19T06:14:20.444Z,1007.96
2022-11-19T06:15:20.435Z,1007.97
2022-11-19T06:16:20.411Z,1008.00
2022-11-19T06:17:20.391Z,1007.97
2022-11-19T06:18:20.395Z,1008.01
2022-11-19T06:19:20.784Z,1007.98
2022-11-19T06:20:20.375Z,1008.03
2022-11-19T06:21:20.355Z,1007.97
2022-11-19T06:22:20.348Z,1008.03
2022-11-19T06:23:20.337Z,1008.00
2022-11-19T06:24:20.327Z,1008.04
2022-11-19T06:25:20.323Z,1008.06
2022-11-19T06:26:20.341Z,1008.09
2022-11-19T06:27:20.287Z,1008.05
2022-11-19T06:28:20.280Z,1008.08
2022-11-19T06:29:20.544Z,1008.09
2022-11-19T06:30:20.263Z,1008.05
2022-11-19T06:31:20.260Z,1008.04
2022-11-19T06:32:20.262Z,1008.05
2022-11-19T06:33:20.236Z,1008.04
2022-11-19T06:34:20.246Z,1008.06
2022-11-19T06:35:20.219Z,1008.00
2022-11-19T06:36:20.218Z,1008.00
2022-11-19T06:37:20.193Z,1008.02
2022-11-19T06:38:20.190Z,1008.01
2022-11-19T06:39:20.618Z,1008.01
2022-11-19T06:40:20.164Z,1007.98
2022-11-19T06:41:20.154Z,1008.00
2022-11-19T06:42:20.137Z,1007.98
2022-11-19T06:43:20.120Z,1007.99
2022-11-19T06:44:20.120Z,1007.97
2022-11-19T06:45:20.113Z,1007.95
2022-11-19T06:46:20.107Z,1007.98
2022-11-19T06:47:20.078Z,1007.94
2022-11-19T06:48:20.074Z,1007.94
2022-11-19T06:49:20.618Z,1007.91
2022-11-19T06:50:20.063Z,1007.92
2022-11-19T06:51:20.051Z,1007.95
2022-11-19T06:52:20.038Z,1007.90
2022-11-19T06:53:20.024Z,1007.88
2022-11-19T06:54:20.011Z,1007.92
2022-11-19T06:55:20.010Z,1007.96
2022-11-19T06:56:20.018Z,1007.95
2022-11-19T06:57:19.991Z,1007.96
2022-11-19T06:58:19.979Z,1008.02
2022-11-19T06:59:20.235Z,1008.00
2022-11-19T07:00:19.959Z,1007.96
2022-11-19T07:01:19.990Z,1007.99
2022-11-19T07:02:21.562Z,1008.00
2022-11-19T07:03:19.919Z,1008.01
2022-11-19T07:04:19.909Z,1008.00
2022-11-19T07:05:19.902Z,1007.99
2022-11-19T07:06:19.939Z,1007.93
2022-11-19T07:07:19.949Z,1007.95
2022-11-19T07:08:19.874Z,1007.95
2022-11-19T07:09:20.042Z,1007.92
2022-11-19T07:10:19.856Z,1007.91
2022-11-19T07:11:19.837Z,1007.94
2022-11-19T07:12:19.840Z,1008.00
2022-11-19T07:13:19.805Z,1008.03
2022-11-19T07:14:19.810Z,1008.06
2022-11-19T07:15:19.794Z,1008.07
2022-11-19T07:16:19.786Z,1008.09
2022-11-19T07:17:19.785Z,1008.08
2022-11-19T07:18:19.759Z,1008.14
2022-11-19T07:19:20.028Z,1008.13
2022-11-19T07:20:19.743Z,1008.18
2022-11-19T07:21:19.738Z,1008.15
2022-11-19T07:22:19.883Z,1008.13
2022-11-19T07:23:19.706Z,1008.10
2022-11-19T07:24:19.727Z,1008.14
2022-11-19T07:25:19.705Z,1008.12
2022-11-19T07:26:19.686Z,1008.12
2022-11-19T07:27:19.670Z,1008.09
2022-11-19T07:28:19.650Z,1008.05
2022-11-19T07:29:20.101Z,1008.02
2022-11-19T07:30:19.656Z,1007.97
2022-11-19T07:31:19.669Z,1007.97
2022-11-19T07:32:19.631Z,1007.96
2022-11-19T07:33:19.605Z,1007.91
2022-11-19T07:34:19.585Z,1008.00
2022-11-19T07:35:19.600Z,1007.98
2022-11-19T07:36:19.563Z,1007.97
2022-11-19T07:37:19.585Z,1007.93
2022-11-19T07:38:19.565Z,1007.93
2022-11-19T07:39:19.864Z,1007.92
2022-11-19T07:40:19.528Z,1007.96
2022-11-19T07:41:19.531Z,1008.00
2022-11-19T07:42:19.547Z,1008.05
2022-11-19T07:43:19.508Z,1008.05
2022-11-19T07:44:19.490Z,1008.04
2022-11-19T07:45:19.477Z,1008.10
2022-11-19T07:46:19.464Z,1008.08
2022-11-19T07:47:19.465Z,1008.07
2022-11-19T07:48:19.455Z,1008.05
2022-11-19T07:49:19.785Z,1008.08
2022-11-19T07:50:19.412Z,1008.05
2022-11-19T07:51:19.415Z,1008.10
2022-11-19T07:52:19.397Z,1008.08
2022-11-19T07:53:19.423Z,1008.13
2022-11-19T07:54:19.378Z,1008.07
2022-11-19T07:55:19.376Z,1008.08
2022-11-19T07:56:19.382Z,1008.10
2022-11-19T07:57:19.356Z,1008.07
2022-11-19T07:58:19.350Z,1008.07
2022-11-19T07:59:19.688Z,1008.04
2022-11-19T08:00:19.317Z,1008.05
2022-11-19T08:01:19.427Z,1007.99
2022-11-19T08:02:19.302Z,1007.94
2022-11-19T08:03:19.301Z,1007.96
2022-11-19T08:04:19.272Z,1007.96
2022-11-19T08:05:19.267Z,1007.93
2022-11-19T08:06:19.250Z,1007.97
2022-11-19T08:07:19.302Z,1007.94
2022-11-19T08:08:19.246Z,1007.89
2022-11-19T08:09:19.540Z,1007.89
2022-11-19T08:10:19.217Z,1007.92
2022-11-19T08:11:19.215Z,1007.89
2022-11-19T08:12:19.199Z,1007.86
2022-11-19T08:13:19.197Z,1007.80
2022-11-19T08:14:19.169Z,1007.83
2022-11-19T08:15:19.175Z,1007.81
2022-11-19T08:16:19.156Z,1007.76
2022-11-19T08:17:19.138Z,1007.79
2022-11-19T08:18:19.135Z,1007.81
2022-11-19T08:19:19.519Z,1007.75
2022-11-19T08:20:19.105Z,1007.69
2022-11-19T08:21:19.097Z,1007.74
2022-11-19T08:22:19.082Z,1007.68
2022-11-19T08:23:19.086Z,1007.71
2022-11-19T08:24:19.424Z,1007.69
2022-11-19T08:25:19.068Z,1007.69
2022-11-19T08:26:19.045Z,1007.67
2022-11-19T08:27:19.038Z,1007.64
2022-11-19T08:28:19.027Z,1007.61
2022-11-19T08:29:19.025Z,1007.67
2022-11-19T08:30:19.001Z,1007.64
2022-11-19T08:31:19.000Z,1007.68
2022-11-19T08:32:18.984Z,1007.62
2022-11-19T08:33:18.963Z,1007.61
2022-11-19T08:34:19.419Z,1007.62
2022-11-19T08:35:18.965Z,1007.63
2022-11-19T08:36:18.935Z,1007.61
2022-11-19T08:37:18.927Z,1007.62
2022-11-19T08:38:18.909Z,1007.64
2022-11-19T08:39:18.920Z,1007.59
2022-11-19T08:40:18.893Z,1007.60
2022-11-19T08:41:18.889Z,1007.62
2022-11-19T08:42:18.862Z,1007.64
2022-11-19T08:43:18.857Z,1007.62
2022-11-19T08:44:19.343Z,1007.64
2022-11-19T08:45:20.898Z,1007.58
2022-11-19T08:46:18.841Z,1007.57
2022-11-19T08:47:18.822Z,1007.61
2022-11-19T08:48:18.797Z,1007.60
2022-11-19T08:49:18.826Z,1007.60
2022-11-19T08:50:18.789Z,1007.64
2022-11-19T08:51:18.775Z,1007.63
2022-11-19T08:52:18.766Z,1007.65
2022-11-19T08:53:18.755Z,1007.64
2022-11-19T08:54:19.074Z,1007.69
2022-11-19T08:55:18.737Z,1007.65
2022-11-19T08:56:18.724Z,1007.66
2022-11-19T08:57:18.714Z,1007.65
2022-11-19T08:58:18.694Z,1007.64
2022-11-19T08:59:19.108Z,1007.58
2022-11-19T09:00:18.685Z,1007.59
2022-11-19T09:01:18.699Z,1007.58
2022-11-19T09:02:18.653Z,1007.58
2022-11-19T09:03:18.657Z,1007.53
2022-11-19T09:04:19.087Z,1007.56
2022-11-19T09:05:18.651Z,1007.58
2022-11-19T09:06:18.603Z,1007.58
2022-11-19T09:07:18.663Z,1007.57
2022-11-19T09:08:18.598Z,1007.61
2022-11-19T09:09:18.588Z,1007.59
2022-11-19T09:10:18.584Z,1007.62
2022-11-19T09:11:18.571Z,1007.60
2022-11-19T09:12:18.547Z,1007.57
2022-11-19T09:13:18.542Z,1007.61
2022-11-19T09:14:18.818Z,1007.61
2022-11-19T09:15:18.540Z,1007.57
2022-11-19T09:16:18.501Z,1007.59
2022-11-19T09:17:18.500Z,1007.59
2022-11-19T09:18:18.478Z,1007.59
2022-11-19T09:19:18.477Z,1007.59
2022-11-19T09:20:18.499Z,1007.59
2022-11-19T09:21:18.461Z,1007.59
2022-11-19T09:22:18.444Z,1007.62
2022-11-19T09:23:18.446Z,1007.61
2022-11-19T09:24:18.777Z,1007.60
2022-11-19T09:25:18.423Z,1007.63
2022-11-19T09:26:18.438Z,1007.64
2022-11-19T09:27:18.406Z,1007.65
2022-11-19T09:28:18.382Z,1007.63
2022-11-19T09:29:18.386Z,1007.67
2022-11-19T09:30:18.376Z,1007.65
2022-11-19T09:31:18.353Z,1007.66
2022-11-19T09:32:23.967Z,1007.66
2022-11-19T09:33:18.328Z,1007.68
2022-11-19T09:34:18.733Z,1007.69
2022-11-19T09:35:18.398Z,1007.70
2022-11-19T09:36:18.333Z,1007.68
2022-11-19T09:37:18.292Z,1007.67
2022-11-19T09:38:18.272Z,1007.69
2022-11-19T09:39:18.265Z,1007.72
2022-11-19T09:40:18.270Z,1007.69
2022-11-19T09:41:18.247Z,1007.72
2022-11-19T09:42:18.227Z,1007.69
2022-11-19T09:43:18.225Z,1007.71
2022-11-19T09:44:18.524Z,1007.68
2022-11-19T09:45:18.226Z,1007.69
2022-11-19T09:46:18.189Z,1007.68
2022-11-19T09:47:18.186Z,1007.66
2022-11-19T09:48:18.171Z,1007.64
2022-11-19T09:49:18.162Z,1007.70
2022-11-19T09:50:18.178Z,1007.72
2022-11-19T09:51:18.164Z,1007.73
2022-11-19T09:52:18.130Z,1007.73
2022-11-19T09:53:18.113Z,1007.68
2022-11-19T09:54:18.429Z,1007.67
2022-11-19T09:55:18.089Z,1007.71
2022-11-19T09:56:18.089Z,1007.65
2022-11-19T09:57:18.070Z,1007.57
2022-11-19T09:58:18.054Z,1007.60
2022-11-19T09:59:18.048Z,1007.57
2022-11-19T10:00:18.029Z,1007.58
2022-11-19T10:01:18.043Z,1007.53
2022-11-19T10:02:18.026Z,1007.50
2022-11-19T10:03:18.087Z,1007.52
2022-11-19T10:04:18.413Z,1007.50
2022-11-19T10:05:17.994Z,1007.50
2022-11-19T10:06:17.981Z,1007.43
2022-11-19T10:07:18.048Z,1007.40
2022-11-19T10:08:17.951Z,1007.37
2022-11-19T10:09:17.943Z,1007.39
2022-11-19T10:10:17.932Z,1007.39
2022-11-19T10:11:17.929Z,1007.37
2022-11-19T10:12:17.923Z,1007.38
2022-11-19T10:13:17.910Z,1007.39
2022-11-19T10:14:18.175Z,1007.40
2022-11-19T10:15:17.891Z,1007.41
2022-11-19T10:16:17.870Z,1007.39
2022-11-19T10:17:17.879Z,1007.37
2022-11-19T10:18:17.843Z,1007.38
2022-11-19T10:19:17.883Z,1007.40
2022-11-19T10:20:17.817Z,1007.34
2022-11-19T10:21:17.817Z,1007.32
2022-11-19T10:22:17.822Z,1007.31
2022-11-19T10:23:17.798Z,1007.25
2022-11-19T10:24:18.492Z,1007.26
2022-11-19T10:25:17.766Z,1007.28
2022-11-19T10:26:17.750Z,1007.22
2022-11-19T10:27:17.744Z,1007.20
2022-11-19T10:28:17.737Z,1007.20
2022-11-19T10:29:18.209Z,1007.12
2022-11-19T10:30:17.793Z,1007.10
2022-11-19T10:31:17.709Z,1007.15
2022-11-19T10:32:17.683Z,1007.11
2022-11-19T10:33:17.698Z,1007.12
2022-11-19T10:34:17.698Z,1007.10
2022-11-19T10:35:17.661Z,1007.15
2022-11-19T10:36:17.647Z,1007.13
2022-11-19T10:37:17.640Z,1007.18
2022-11-19T10:38:17.620Z,1007.22
2022-11-19T10:39:18.141Z,1007.21
2022-11-19T10:40:17.637Z,1007.13
2022-11-19T10:41:17.591Z,1007.15
2022-11-19T10:42:17.584Z,1007.06
2022-11-19T10:43:22.068Z,1007.08
2022-11-19T10:44:17.905Z,1007.03
2022-11-19T10:45:17.555Z,1007.04
2022-11-19T10:46:17.547Z,1007.00
2022-11-19T10:47:17.530Z,1007.00
2022-11-19T10:48:17.512Z,1006.98
2022-11-19T10:49:17.890Z,1006.97
2022-11-19T10:50:17.700Z,1006.98
2022-11-19T10:51:17.482Z,1007.05
2022-11-19T10:52:17.470Z,1006.99
2022-11-19T10:53:17.459Z,1006.97
2022-11-19T10:54:17.441Z,1006.89
2022-11-19T10:55:17.457Z,1006.89
2022-11-19T10:56:17.434Z,1006.89
2022-11-19T10:57:17.433Z,1006.92
2022-11-19T10:58:17.405Z,1006.87
2022-11-19T10:59:17.926Z,1006.89
2022-11-19T11:00:18.398Z,1006.84
2022-11-19T11:01:17.430Z,1006.82
2022-11-19T11:02:17.365Z,1006.82
2022-11-19T11:03:17.354Z,1006.81
2022-11-19T11:04:17.342Z,1006.85
2022-11-19T11:05:17.340Z,1006.80
2022-11-19T11:06:17.332Z,1006.77
2022-11-19T11:07:17.373Z,1006.79
2022-11-19T11:08:17.298Z,1006.81
2022-11-19T11:09:17.679Z,1006.77
2022-11-19T11:10:17.277Z,1006.79
2022-11-19T11:11:17.290Z,1006.72
2022-11-19T11:12:17.254Z,1006.67
2022-11-19T11:13:17.242Z,1006.66
2022-11-19T11:14:17.236Z,1006.75
2022-11-19T11:15:17.232Z,1006.60
2022-11-19T11:16:17.221Z,1006.66
2022-11-19T11:17:17.224Z,1006.66
2022-11-19T11:18:17.192Z,1006.66
2022-11-19T11:19:17.811Z,1006.62
2022-11-19T11:20:17.183Z,1006.63
2022-11-19T11:21:17.194Z,1006.57
2022-11-19T11:22:17.161Z,1006.57
2022-11-19T11:23:17.143Z,1006.56
2022-11-19T11:24:17.133Z,1006.54
2022-11-19T11:25:17.115Z,1006.51
2022-11-19T11:26:17.131Z,1006.49
2022-11-19T11:27:17.148Z,1006.47
2022-11-19T11:28:17.082Z,1006.54
2022-11-19T11:29:17.540Z,1006.45
2022-11-19T11:30:17.232Z,1006.42
2022-11-19T11:31:17.056Z,1006.43
2022-11-19T11:32:17.045Z,1006.49
2022-11-19T11:33:17.057Z,1006.45
2022-11-19T11:34:17.030Z,1006.39
2022-11-19T11:35:17.044Z,1006.37
2022-11-19T11:36:17.004Z,1006.33
2022-11-19T11:37:16.993Z,1006.35
2022-11-19T11:38:16.996Z,1006.33
2022-11-19T11:39:17.134Z,1006.39
2022-11-19T11:40:16.957Z,1006.33
2022-11-19T11:42:17.999Z,1006.31
2022-11-19T11:43:16.965Z,1006.29
2022-11-19T11:44:16.942Z,1006.32
2022-11-19T11:45:16.904Z,1006.27
2022-11-19T11:46:16.899Z,1006.28
2022-11-19T11:47:16.892Z,1006.30
2022-11-19T11:48:16.866Z,1006.26
2022-11-19T11:49:16.867Z,1006.32
2022-11-19T11:50:16.865Z,1006.31
2022-11-19T11:51:16.837Z,1006.35
2022-11-19T11:52:16.826Z,1006.28
2022-11-19T11:53:16.819Z,1006.28
2022-11-19T11:54:18.321Z,1006.27
2022-11-19T11:55:16.792Z,1006.29
2022-11-19T11:56:16.790Z,1006.30
2022-11-19T11:57:16.790Z,1006.32
2022-11-19T11:58:16.772Z,1006.28
2022-11-19T11:59:17.172Z,1006.32
2022-11-19T12:00:16.744Z,1006.34
2022-11-19T12:01:16.725Z,1006.23
2022-11-19T12:02:16.749Z,1006.21
2022-11-19T12:03:16.709Z,1006.25
2022-11-19T12:04:16.715Z,1006.31
2022-11-19T12:05:16.690Z,1006.29
2022-11-19T12:06:16.701Z,1006.30
2022-11-19T12:07:16.689Z,1006.31